Time,TemperatureF,DewpointF,PressureIn,WindDirection,WindDirectionDegrees,WindSpeedMPH,WindSpeedGustMPH,Humidity,HourlyPrecipIn,Conditions,Clouds,dailyrainin,SoftwareType,DateUTC
2013-07-12 00:11:00,68.0,56.0,-100.00,East,90,3.0,4.0,66,-99.99,,,-99.99,,2013-07-12 05:11:00,
2013-07-12 00:22:00,68.0,56.0,-100.00,East,90,3.0,4.0,66,-99.99,,,-99.99,,2013-07-12 05:22:00,
2013-07-12 00:53:00,67.0,56.0,-100.00,East,100,1.0,3.0,67,-99.99,,,-99.99,,2013-07-12 05:53:00,
2013-07-12 01:11:00,67.0,55.0,-100.00,East,80,2.0,3.0,67,-99.99,,,-99.99,,2013-07-12 06:11:00,
2013-07-12 01:22:00,67.0,55.0,-100.00,East,80,2.0,3.0,67,-99.99,,,-99.99,,2013-07-12 06:22:00,
2013-07-12 01:52:00,66.0,55.0,-100.00,East,90,3.0,4.0,68,-99.99,,,-99.99,,2013-07-12 06:52:00,
2013-07-12 02:12:00,65.0,55.0,-100.00,East,100,2.0,2.0,71,-99.99,,,-99.99,,2013-07-12 07:12:00,
2013-07-12 02:22:00,65.0,55.0,-100.00,East,100,2.0,2.0,71,-99.99,,,-99.99,,2013-07-12 07:22:00,
2013-07-12 02:43:00,65.0,55.0,-100.00,ESE,115,2.0,3.0,70,-99.99,,,-99.99,,2013-07-12 07:43:00,
2013-07-12 02:52:00,65.0,55.0,-100.00,ESE,115,2.0,3.0,70,-99.99,,,-99.99,,2013-07-12 07:52:00,
2013-07-12 03:01:00,65.0,55.0,-100.00,ESE,115,2.0,3.0,70,-99.99,,,-99.99,,2013-07-12 08:01:00,
2013-07-12 03:21:00,64.0,54.0,-100.00,ESE,120,1.0,1.0,71,-99.99,,,-99.99,,2013-07-12 08:21:00,
2013-07-12 03:42:00,63.0,55.0,-100.00,East,90,2.0,3.0,75,-99.99,,,-99.99,,2013-07-12 08:42:00,
2013-07-12 03:53:00,63.0,55.0,-100.00,East,90,2.0,3.0,75,-99.99,,,-99.99,,2013-07-12 08:53:00,
2013-07-12 04:12:00,62.0,55.0,-100.00,East,100,3.0,4.0,77,-99.99,,,-99.99,,2013-07-12 09:12:00,
2013-07-12 04:22:00,62.0,55.0,-100.00,East,100,3.0,4.0,77,-99.99,,,-99.99,,2013-07-12 09:22:00,
2013-07-12 04:43:00,62.0,55.0,-100.00,East,85,3.0,4.0,77,-99.99,,,-99.99,,2013-07-12 09:43:00,
2013-07-12 04:52:00,62.0,55.0,-100.00,East,85,3.0,4.0,77,-99.99,,,-99.99,,2013-07-12 09:52:00,
2013-07-12 05:22:00,62.0,54.0,-100.00,East,90,4.0,4.0,77,-99.99,,,-99.99,,2013-07-12 10:22:00,
2013-07-12 05:42:00,61.0,54.0,-100.00,East,90,4.0,5.0,77,-99.99,,,-99.99,,2013-07-12 10:42:00,
2013-07-12 05:52:00,61.0,54.0,-100.00,East,90,4.0,5.0,77,-99.99,,,-99.99,,2013-07-12 10:52:00,
2013-07-12 06:12:00,62.0,54.0,-100.00,East,85,3.0,4.0,76,-99.99,,,-99.99,,2013-07-12 11:12:00,
2013-07-12 06:22:00,62.0,54.0,-100.00,East,85,3.0,4.0,76,-99.99,,,-99.99,,2013-07-12 11:22:00,
2013-07-12 06:43:00,62.0,56.0,-100.00,NE,55,1.0,3.0,81,-99.99,,,-99.99,,2013-07-12 11:43:00,
2013-07-12 06:53:00,62.0,56.0,-100.00,NE,55,1.0,3.0,81,-99.99,,,-99.99,,2013-07-12 11:53:00,
2013-07-12 07:11:00,64.0,57.0,-100.00,ESE,105,1.0,3.0,77,-99.99,,,-99.99,,2013-07-12 12:11:00,
2013-07-12 07:22:00,64.0,57.0,-100.00,ESE,105,1.0,3.0,77,-99.99,,,-99.99,,2013-07-12 12:22:00,
2013-07-12 07:53:00,68.0,58.0,-100.00,NNE,25,0.0,1.0,72,-99.99,,,-99.99,,2013-07-12 12:53:00,
2013-07-12 08:22:00,69.0,60.0,-100.00,West,275,1.0,2.0,72,-99.99,,,-99.99,,2013-07-12 13:22:00,
2013-07-12 08:43:00,72.0,59.0,-100.00,SSE,160,0.0,2.0,63,-99.99,,,-99.99,,2013-07-12 13:43:00,
2013-07-12 08:53:00,72.0,59.0,-100.00,SSE,160,0.0,2.0,63,-99.99,,,-99.99,,2013-07-12 13:53:00,
2013-07-12 09:22:00,74.0,58.0,-100.00,East,95,2.0,4.0,57,-99.99,,,-99.99,,2013-07-12 14:22:00,
2013-07-12 09:44:00,76.0,58.0,-100.00,South,175,1.0,3.0,53,-99.99,,,-99.99,,2013-07-12 14:44:00,
2013-07-12 09:53:00,76.0,58.0,-100.00,South,175,1.0,3.0,53,-99.99,,,-99.99,,2013-07-12 14:53:00,
2013-07-12 10:22:00,78.0,57.0,-100.00,SSE,150,1.0,5.0,49,-99.99,,,-99.99,,2013-07-12 15:22:00,
2013-07-12 10:53:00,78.0,55.0,-100.00,SE,135,4.0,6.0,46,-99.99,,,-99.99,,2013-07-12 15:53:00,
2013-07-12 11:22:00,80.0,56.0,-100.00,ENE,75,1.0,4.0,44,-99.99,,,-99.99,,2013-07-12 16:22:00,
2013-07-12 11:43:00,81.0,57.0,-100.00,ESE,120,4.0,6.0,44,-99.99,,,-99.99,,2013-07-12 16:43:00,
2013-07-12 11:58:00,81.0,57.0,-100.00,ESE,120,4.0,6.0,44,-99.99,,,-99.99,,2013-07-12 16:58:00,
2013-07-12 12:14:00,80.0,56.0,-100.00,East,90,6.0,7.0,43,-99.99,,,-99.99,,2013-07-12 17:14:00,
2013-07-12 12:24:00,80.0,56.0,-100.00,East,90,6.0,7.0,43,-99.99,,,-99.99,,2013-07-12 17:24:00,
2013-07-12 12:45:00,82.0,56.0,-100.00,SE,140,4.0,7.0,41,-99.99,,,-99.99,,2013-07-12 17:45:00,
2013-07-12 12:56:00,82.0,56.0,-100.00,SE,140,4.0,7.0,41,-99.99,,,-99.99,,2013-07-12 17:56:00,
2013-07-12 14:15:00,83.0,55.0,-100.00,East,95,3.0,6.0,39,-99.99,,,-99.99,,2013-07-12 19:15:00,
2013-07-12 14:24:00,83.0,55.0,-100.00,East,95,3.0,6.0,39,-99.99,,,-99.99,,2013-07-12 19:24:00,
2013-07-12 14:58:00,84.0,55.0,-100.00,East,95,5.0,6.0,37,-99.99,,,-99.99,,2013-07-12 19:58:00,
2013-07-12 15:24:00,84.0,55.0,-100.00,East,95,4.0,7.0,37,-99.99,,,-99.99,,2013-07-12 20:24:00,
2013-07-12 15:45:00,84.0,54.0,-100.00,East,95,3.0,5.0,36,-99.99,,,-99.99,,2013-07-12 20:45:00,
2013-07-12 15:55:00,84.0,54.0,-100.00,East,95,3.0,5.0,36,-99.99,,,-99.99,,2013-07-12 20:55:00,
2013-07-12 16:15:00,85.0,56.0,-100.00,WSW,245,1.0,4.0,37,-99.99,,,-99.99,,2013-07-12 21:15:00,
2013-07-12 16:25:00,85.0,56.0,-100.00,WSW,245,1.0,4.0,37,-99.99,,,-99.99,,2013-07-12 21:25:00,
2013-07-12 16:59:00,85.0,55.0,-100.00,SE,125,3.0,6.0,36,-99.99,,,-99.99,,2013-07-12 21:59:00,
2013-07-12 17:24:00,84.0,55.0,-100.00,East,95,4.0,6.0,37,-99.99,,,-99.99,,2013-07-12 22:24:00,
2013-07-12 17:44:00,84.0,55.0,-100.00,ESE,110,3.0,6.0,37,-99.99,,,-99.99,,2013-07-12 22:44:00,
2013-07-12 17:56:00,84.0,55.0,-100.00,ESE,110,3.0,6.0,37,-99.99,,,-99.99,,2013-07-12 22:56:00,
2013-07-12 18:25:00,84.0,55.0,-100.00,NE,55,2.0,5.0,37,-99.99,,,-99.99,,2013-07-12 23:25:00,
2013-07-12 18:35:00,83.0,54.0,-100.00,ESE,105,4.0,6.0,37,-99.99,,,-99.99,,2013-07-12 23:35:00,
2013-07-12 18:58:00,83.0,55.0,-100.00,East,90,4.0,6.0,39,-99.99,,,-99.99,,2013-07-12 23:58:00,
2013-07-12 19:06:00,83.0,56.0,-100.00,ENE,75,3.0,4.0,40,-99.99,,,-99.99,,2013-07-13 00:06:00,
2013-07-12 19:25:00,82.0,55.0,-100.00,ENE,70,4.0,5.0,40,-99.99,,,-99.99,,2013-07-13 00:25:00,
2013-07-12 19:33:00,82.0,55.0,-100.00,ENE,70,4.0,5.0,40,-99.99,,,-99.99,,2013-07-13 00:33:00,
2013-07-12 19:56:00,81.0,56.0,-100.00,NE,55,1.0,5.0,43,-99.99,,,-99.99,,2013-07-13 00:56:00,
2013-07-12 20:13:00,79.0,56.0,-100.00,ENE,65,2.0,5.0,46,-99.99,,,-99.99,,2013-07-13 01:13:00,
2013-07-12 20:24:00,79.0,56.0,-100.00,ENE,65,2.0,5.0,46,-99.99,,,-99.99,,2013-07-13 01:24:00,
2013-07-12 20:56:00,76.0,56.0,-100.00,NE,50,4.0,4.0,49,-99.99,,,-99.99,,2013-07-13 01:56:00,
2013-07-12 21:14:00,74.0,56.0,-100.00,NE,55,4.0,5.0,53,-99.99,,,-99.99,,2013-07-13 02:14:00,
2013-07-12 21:24:00,74.0,56.0,-100.00,NE,55,4.0,5.0,53,-99.99,,,-99.99,,2013-07-13 02:24:00,
2013-07-12 21:36:00,74.0,55.0,-100.00,ENE,60,4.0,4.0,53,-99.99,,,-99.99,,2013-07-13 02:36:00,
2013-07-12 21:55:00,73.0,56.0,-100.00,ENE,65,4.0,4.0,55,-99.99,,,-99.99,,2013-07-13 02:55:00,
2013-07-12 22:13:00,72.0,56.0,-100.00,ENE,75,4.0,5.0,56,-99.99,,,-99.99,,2013-07-13 03:13:00,
2013-07-12 22:45:00,70.0,56.0,-100.00,East,85,4.0,5.0,62,-99.99,,,-99.99,,2013-07-13 03:45:00,
2013-07-12 22:57:00,70.0,56.0,-100.00,East,85,4.0,5.0,62,-99.99,,,-99.99,,2013-07-13 03:57:00,
2013-07-12 23:22:00,67.0,58.0,-100.00,SE,135,2.0,2.0,73,-99.99,,,-99.99,,2013-07-13 04:22:00,
2013-07-12 23:43:00,68.0,59.0,-100.00,ESE,110,2.0,3.0,74,-99.99,,,-99.99,,2013-07-13 04:43:00,
2013-07-12 23:52:00,68.0,59.0,-100.00,ESE,110,2.0,3.0,74,-99.99,,,-99.99,,2013-07-13 04:52:00,